createdAt,value
2019-06-10T00:00:35.089Z,0.00
2019-06-10T00:01:34.978Z,0.00
2019-06-10T00:02:34.905Z,0.00
2019-06-10T00:03:34.834Z,0.00
2019-06-10T00:04:34.761Z,0.00
2019-06-10T00:05:34.690Z,0.00
2019-06-10T00:06:34.617Z,0.00
2019-06-10T00:07:34.543Z,0.00
2019-06-10T00:08:34.471Z,0.00
2019-06-10T00:09:34.398Z,0.00
2019-06-10T00:10:34.327Z,0.00
2019-06-10T00:11:34.254Z,0.00
2019-06-10T00:12:34.181Z,0.00
2019-06-10T00:13:34.107Z,0.00
2019-06-10T00:14:34.036Z,0.00
2019-06-10T00:15:33.965Z,0.00
2019-06-10T00:16:33.890Z,0.00
2019-06-10T00:17:33.818Z,0.00
2019-06-10T00:18:41.522Z,0.00
2019-06-10T00:19:33.673Z,0.00
2019-06-10T00:20:33.601Z,0.00
2019-06-10T00:21:33.529Z,0.00
2019-06-10T00:22:33.456Z,0.00
2019-06-10T00:23:33.385Z,0.00
2019-06-10T00:24:33.312Z,0.00
2019-06-10T00:25:33.236Z,0.00
2019-06-10T00:26:33.165Z,0.00
2019-06-10T00:27:33.093Z,0.00
2019-06-10T00:28:33.021Z,0.00
2019-06-10T00:29:32.948Z,0.00
2019-06-10T00:30:32.875Z,0.00
2019-06-10T00:31:32.807Z,0.00
2019-06-10T00:32:32.731Z,0.00
2019-06-10T00:33:32.667Z,0.00
2019-06-10T00:34:35.020Z,0.00
2019-06-10T00:35:32.514Z,0.00
2019-06-10T00:36:32.441Z,0.00
2019-06-10T00:37:32.367Z,0.00
2019-06-10T00:38:32.298Z,0.00
2019-06-10T00:39:32.222Z,0.00
2019-06-10T00:40:32.152Z,0.00
2019-06-10T00:41:32.081Z,0.00
2019-06-10T00:42:32.006Z,0.00
2019-06-10T00:43:31.932Z,0.00
2019-06-10T00:44:31.861Z,0.00
2019-06-10T00:45:31.788Z,0.00
2019-06-10T00:46:31.789Z,0.00
2019-06-10T00:47:31.643Z,0.00
2019-06-10T00:48:32.281Z,0.00
2019-06-10T00:49:31.743Z,0.00
2019-06-10T00:50:31.424Z,0.00
2019-06-10T00:51:31.476Z,0.00
2019-06-10T00:52:31.283Z,0.00
2019-06-10T00:53:31.642Z,0.00
2019-06-10T00:54:31.353Z,0.00
2019-06-10T00:55:31.482Z,0.00
2019-06-10T00:56:30.991Z,0.00
2019-06-10T00:57:31.449Z,0.00
2019-06-10T00:58:31.937Z,0.00
2019-06-10T00:59:31.233Z,0.00
2019-06-10T01:00:31.760Z,0.00
2019-06-10T01:01:31.302Z,0.00
2019-06-10T01:02:31.844Z,0.00
2019-06-10T01:03:31.326Z,0.00
2019-06-10T01:04:31.913Z,0.00
2019-06-10T01:05:31.277Z,0.00
2019-06-10T01:06:31.797Z,0.00
2019-06-10T01:07:31.141Z,0.00
2019-06-10T01:08:31.603Z,0.00
2019-06-10T01:09:31.072Z,0.00
2019-06-10T01:10:31.628Z,0.00
2019-06-10T01:11:31.057Z,0.00
2019-06-10T01:12:31.605Z,0.00
2019-06-10T01:13:30.937Z,0.00
2019-06-10T01:14:31.879Z,0.00
2019-06-10T01:15:31.149Z,0.00
2019-06-10T01:16:31.648Z,0.00
2019-06-10T01:17:31.096Z,0.00
2019-06-10T01:18:37.434Z,0.00
2019-06-10T01:19:31.079Z,0.00
2019-06-10T01:20:29.245Z,0.00
2019-06-10T01:21:31.176Z,0.00
2019-06-10T01:22:31.464Z,0.00
2019-06-10T01:23:30.927Z,0.00
2019-06-10T01:24:31.282Z,0.00
2019-06-10T01:25:30.988Z,0.00
2019-06-10T01:26:30.835Z,0.00
2019-06-10T01:27:28.736Z,0.00
2019-06-10T01:28:31.197Z,0.00
2019-06-10T01:29:28.589Z,0.00
2019-06-10T01:30:31.079Z,0.00
2019-06-10T01:31:28.444Z,0.00
2019-06-10T01:32:31.025Z,0.00
2019-06-10T01:33:28.298Z,0.00
2019-06-10T01:34:28.226Z,0.00
2019-06-10T01:35:30.479Z,0.00
2019-06-10T01:36:28.080Z,0.00
2019-06-10T01:37:28.007Z,0.00
2019-06-10T01:38:27.934Z,0.00
2019-06-10T01:39:27.861Z,0.00
2019-06-10T01:40:27.789Z,0.00
2019-06-10T01:41:27.717Z,0.00
2019-06-10T01:42:27.644Z,0.00
2019-06-10T01:43:27.571Z,0.00
2019-06-10T01:44:27.499Z,0.00
2019-06-10T01:45:27.425Z,0.00
2019-06-10T01:46:27.354Z,0.00
2019-06-10T01:47:27.281Z,0.00
2019-06-10T01:48:40.603Z,0.00
2019-06-10T01:49:27.135Z,0.00
2019-06-10T01:50:27.062Z,0.00
2019-06-10T01:51:26.990Z,0.00
2019-06-10T01:52:26.918Z,0.00
2019-06-10T01:53:26.844Z,0.00
2019-06-10T01:54:26.771Z,0.00
2019-06-10T01:55:26.699Z,0.00
2019-06-10T01:56:26.626Z,0.00
2019-06-10T01:57:26.555Z,0.00
2019-06-10T01:58:26.481Z,0.00
2019-06-10T01:59:26.408Z,0.00
2019-06-10T02:00:26.335Z,0.00
2019-06-10T02:01:26.261Z,0.00
2019-06-10T02:02:26.190Z,0.00
2019-06-10T02:03:26.135Z,0.00
2019-06-10T02:04:26.047Z,0.00
2019-06-10T02:05:25.969Z,0.00
2019-06-10T02:06:26.086Z,0.00
2019-06-10T02:07:25.824Z,0.00
2019-06-10T02:08:25.752Z,0.00
2019-06-10T02:09:25.700Z,0.00
2019-06-10T02:10:25.606Z,0.00
2019-06-10T02:11:25.532Z,0.00
2019-06-10T02:12:25.461Z,0.00
2019-06-10T02:13:25.388Z,0.00
2019-06-10T02:14:25.324Z,0.00
2019-06-10T02:15:25.242Z,0.00
2019-06-10T02:16:25.168Z,0.00
2019-06-10T02:17:25.094Z,0.00
2019-06-10T02:18:25.022Z,0.00
2019-06-10T02:19:24.950Z,0.00
2019-06-10T02:20:24.878Z,0.00
2019-06-10T02:21:24.805Z,0.00
2019-06-10T02:22:24.737Z,0.00
2019-06-10T02:23:24.657Z,0.00
2019-06-10T02:24:24.687Z,0.00
2019-06-10T02:25:24.516Z,0.00
2019-06-10T02:26:24.438Z,0.00
2019-06-10T02:27:24.366Z,0.00
2019-06-10T02:28:24.296Z,0.00
2019-06-10T02:29:24.221Z,0.00
2019-06-10T02:30:39.418Z,0.00
2019-06-10T02:31:30.122Z,0.00
2019-06-10T02:32:31.856Z,0.00
2019-06-10T02:33:30.662Z,0.00
2019-06-10T02:34:27.316Z,0.00
2019-06-10T02:35:30.515Z,0.00
2019-06-10T02:36:31.135Z,0.00
2019-06-10T02:37:31.329Z,0.00
2019-06-10T02:38:33.213Z,0.00
2019-06-10T02:39:32.225Z,0.00
2019-06-10T02:40:31.780Z,0.00
2019-06-10T02:41:31.196Z,0.00
2019-06-10T02:42:30.235Z,0.00
2019-06-10T02:43:31.712Z,0.00
2019-06-10T02:44:32.251Z,0.00
2019-06-10T02:45:32.034Z,0.00
2019-06-10T02:46:30.646Z,4.00
2019-06-10T02:47:26.378Z,4.00
2019-06-10T02:48:30.102Z,4.00
2019-06-10T02:49:45.541Z,0.00
2019-06-10T02:50:29.316Z,0.00
2019-06-10T02:51:28.645Z,4.00
2019-06-10T02:52:31.531Z,4.00
2019-06-10T02:53:28.481Z,4.00
2019-06-10T02:54:28.785Z,4.00
2019-06-10T02:55:28.805Z,4.00
2019-06-10T02:56:29.889Z,4.00
2019-06-10T02:57:29.584Z,4.00
2019-06-10T02:58:30.399Z,8.00
2019-06-10T02:59:28.903Z,4.00
2019-06-10T03:00:34.204Z,8.00
2019-06-10T03:01:28.394Z,8.00
2019-06-10T03:02:23.754Z,8.00
2019-06-10T03:03:33.265Z,8.00
2019-06-10T03:04:26.734Z,12.00
2019-06-10T03:05:26.829Z,16.00
2019-06-10T03:06:29.870Z,16.00
2019-06-10T03:07:26.818Z,20.00
2019-06-10T03:08:26.627Z,20.00
2019-06-10T03:09:26.410Z,20.00
2019-06-10T03:10:26.754Z,24.00
2019-06-10T03:11:27.376Z,24.00
2019-06-10T03:12:24.001Z,24.00
2019-06-10T03:13:22.789Z,28.00
2019-06-10T03:14:22.651Z,24.00
2019-06-10T03:15:24.533Z,28.00
2019-06-10T03:16:23.062Z,28.00
2019-06-10T03:17:23.193Z,32.00
2019-06-10T03:18:21.744Z,32.00
2019-06-10T03:19:39.742Z,32.00
2019-06-10T03:20:23.057Z,32.00
2019-06-10T03:21:23.065Z,32.00
2019-06-10T03:22:22.584Z,36.00
2019-06-10T03:23:22.711Z,40.00
2019-06-10T03:24:22.415Z,40.00
2019-06-10T03:25:22.598Z,44.00
2019-06-10T03:26:21.896Z,48.00
2019-06-10T03:27:21.089Z,48.00
2019-06-10T03:28:19.918Z,52.00
2019-06-10T03:29:21.228Z,56.00
2019-06-10T03:30:22.042Z,64.00
2019-06-10T03:31:22.043Z,68.00
2019-06-10T03:32:21.970Z,80.00
2019-06-10T03:33:20.837Z,68.00
2019-06-10T03:34:21.640Z,92.00
2019-06-10T03:35:19.413Z,80.00
2019-06-10T03:36:20.151Z,80.00
2019-06-10T03:37:20.921Z,68.00
2019-06-10T03:38:20.901Z,68.00
2019-06-10T03:39:19.114Z,76.00
2019-06-10T03:40:19.040Z,80.00
2019-06-10T03:41:18.969Z,96.00
2019-06-10T03:42:18.892Z,100.00
2019-06-10T03:43:18.919Z,108.00
2019-06-10T03:44:18.937Z,120.00
2019-06-10T03:45:19.147Z,132.00
2019-06-10T03:46:19.038Z,148.00
2019-06-10T03:47:19.089Z,160.00
2019-06-10T03:48:19.117Z,168.00
2019-06-10T03:49:19.153Z,200.00
2019-06-10T03:50:19.227Z,220.00
2019-06-10T03:51:19.446Z,248.00
2019-06-10T03:52:19.313Z,288.00
2019-06-10T03:54:12.886Z,376.00
2019-06-10T03:55:12.249Z,412.00
2019-06-10T03:56:12.615Z,416.00
2019-06-10T03:58:57.838Z,380.00
2019-06-10T03:59:57.764Z,376.00
2019-06-10T04:00:57.693Z,380.00
2019-06-10T04:01:57.617Z,416.00
2019-06-10T04:02:57.877Z,456.00
2019-06-10T04:03:57.471Z,524.00
2019-06-10T04:04:57.398Z,588.00
2019-06-10T04:05:57.324Z,628.00
2019-06-10T04:06:57.252Z,648.00
2019-06-10T04:07:57.178Z,688.00
2019-06-10T04:08:57.105Z,772.00
2019-06-10T04:09:57.031Z,864.00
2019-06-10T04:10:56.960Z,876.00
2019-06-10T04:11:56.887Z,848.00
2019-06-10T04:12:56.812Z,888.00
2019-06-10T04:13:56.739Z,928.00
2019-06-10T04:14:56.664Z,956.00
2019-06-10T04:15:56.593Z,968.00
2019-06-10T04:16:56.721Z,948.00
2019-06-10T04:17:56.448Z,912.00
2019-06-10T04:18:56.474Z,948.00
2019-06-10T04:20:08.179Z,1060.00
2019-06-10T04:20:56.227Z,1152.00
2019-06-10T04:21:56.493Z,1248.00
2019-06-10T04:22:56.107Z,1312.00
2019-06-10T04:24:55.936Z,1316.00
2019-06-10T04:25:55.861Z,1308.00
2019-06-10T04:26:55.795Z,1388.00
2019-06-10T04:27:55.716Z,1500.00
2019-06-10T04:28:55.642Z,1704.00
2019-06-10T04:29:55.670Z,1844.00
2019-06-10T04:30:55.497Z,2072.00
2019-06-10T04:31:55.424Z,2120.00
2019-06-10T04:32:55.350Z,2088.00
2019-06-10T04:33:55.307Z,1952.00
2019-06-10T04:34:55.211Z,1856.00
2019-06-10T04:35:55.170Z,1708.00
2019-06-10T04:36:55.058Z,1724.00
2019-06-10T04:37:55.215Z,1796.00
2019-06-10T04:38:54.912Z,1888.00
2019-06-10T04:39:57.540Z,1912.00
2019-06-10T04:40:54.767Z,1988.00
2019-06-10T04:41:54.723Z,2088.00
2019-06-10T04:42:54.626Z,2120.00
2019-06-10T04:43:54.548Z,1968.00
2019-06-10T04:44:54.475Z,1684.00
2019-06-10T04:45:54.403Z,1388.00
2019-06-10T04:46:54.331Z,1296.00
2019-06-10T04:47:54.258Z,984.00
2019-06-10T04:48:54.186Z,820.00
2019-06-10T04:49:54.113Z,796.00
2019-06-10T04:50:54.139Z,808.00
2019-06-10T04:51:53.969Z,824.00
2019-06-10T04:52:53.895Z,852.00
2019-06-10T04:53:53.823Z,884.00
2019-06-10T04:54:53.750Z,952.00
2019-06-10T04:55:53.781Z,948.00
2019-06-10T04:56:53.606Z,992.00
2019-06-10T04:57:53.534Z,1028.00
2019-06-10T04:58:53.462Z,1068.00
2019-06-10T04:59:53.398Z,1100.00
2019-06-10T05:00:53.415Z,1148.00
2019-06-10T05:01:53.243Z,1316.00
2019-06-10T05:02:53.172Z,1244.00
2019-06-10T05:03:53.099Z,1388.00
2019-06-10T05:04:53.283Z,1456.00
2019-06-10T05:05:52.953Z,1656.00
2019-06-10T05:06:52.881Z,1680.00
2019-06-10T05:07:52.813Z,1844.00
2019-06-10T05:08:53.743Z,1876.00
2019-06-10T05:09:52.665Z,1844.00
2019-06-10T05:10:52.992Z,1864.00
2019-06-10T05:11:52.520Z,1856.00
2019-06-10T05:12:52.682Z,1804.00
2019-06-10T05:13:53.309Z,1712.00
2019-06-10T05:14:52.734Z,1640.00
2019-06-10T05:15:52.756Z,1612.00
2019-06-10T05:16:54.346Z,1616.00
2019-06-10T05:17:52.678Z,1648.00
2019-06-10T05:18:54.725Z,1688.00
2019-06-10T05:19:53.061Z,1720.00
2019-06-10T05:20:58.242Z,1724.00
2019-06-10T05:21:52.451Z,1760.00
2019-06-10T05:22:52.808Z,1824.00
2019-06-10T05:23:52.188Z,1932.00
2019-06-10T05:24:52.752Z,1992.00
2019-06-10T05:25:52.658Z,2036.00
2019-06-10T05:26:52.659Z,2096.00
2019-06-10T05:27:52.314Z,2104.00
2019-06-10T05:28:52.392Z,2064.00
2019-06-10T05:29:52.714Z,2076.00
2019-06-10T05:30:53.182Z,2140.00
2019-06-10T05:31:52.288Z,2232.00
2019-06-10T05:32:52.366Z,2440.00
2019-06-10T05:33:52.965Z,3028.00
2019-06-10T05:34:52.826Z,3336.00
2019-06-10T05:35:52.858Z,3236.00
2019-06-10T05:36:52.569Z,3268.00
2019-06-10T05:37:52.742Z,3320.00
2019-06-10T05:38:52.662Z,3532.00
2019-06-10T05:39:52.560Z,3912.00
2019-06-10T05:40:52.124Z,4168.00
2019-06-10T05:41:52.947Z,4216.00
2019-06-10T05:42:50.298Z,4272.00
2019-06-10T05:43:52.369Z,4476.00
2019-06-10T05:44:52.290Z,4448.00
2019-06-10T05:45:50.072Z,4464.00
2019-06-10T05:46:52.640Z,4588.00
2019-06-10T05:47:49.933Z,4820.00
2019-06-10T05:48:49.858Z,4812.00
2019-06-10T05:49:49.785Z,4772.00
2019-06-10T05:51:00.233Z,4828.00
2019-06-10T05:51:49.642Z,5036.00
2019-06-10T05:52:51.927Z,5348.00
2019-06-10T05:53:49.500Z,5196.00
2019-06-10T05:54:49.427Z,5284.00
2019-06-10T05:55:49.356Z,5308.00
2019-06-10T05:56:49.389Z,5320.00
2019-06-10T05:57:49.214Z,5476.00
2019-06-10T05:58:49.145Z,5508.00
2019-06-10T05:59:49.070Z,5452.00
2019-06-10T06:00:48.997Z,5492.00
2019-06-10T06:01:48.927Z,5664.00
2019-06-10T06:02:48.856Z,5916.00
2019-06-10T06:03:48.783Z,5880.00
2019-06-10T06:04:48.713Z,6076.00
2019-06-10T06:05:48.641Z,6012.00
2019-06-10T06:06:48.570Z,5708.00
2019-06-10T06:08:01.398Z,5592.00
2019-06-10T06:08:48.427Z,5256.00
2019-06-10T06:09:48.356Z,4988.00
2019-06-10T06:10:48.285Z,4952.00
2019-06-10T06:11:48.217Z,4824.00
2019-06-10T06:12:48.143Z,4660.00
2019-06-10T06:13:48.073Z,4536.00
2019-06-10T06:14:48.002Z,4284.00
2019-06-10T06:15:47.929Z,4028.00
2019-06-10T06:16:47.857Z,3840.00
2019-06-10T06:18:03.254Z,3844.00
2019-06-10T06:18:47.818Z,3736.00
2019-06-10T06:19:47.645Z,3696.00
2019-06-10T06:20:47.576Z,3804.00
2019-06-10T06:21:47.980Z,4064.00
2019-06-10T06:22:47.438Z,3932.00
2019-06-10T06:23:47.361Z,3876.00
2019-06-10T06:24:47.288Z,3892.00
2019-06-10T06:25:47.244Z,4080.00
2019-06-10T06:26:47.148Z,4168.00
2019-06-10T06:27:47.074Z,4152.00
2019-06-10T06:28:47.003Z,4200.00
2019-06-10T06:29:46.958Z,4236.00
2019-06-10T06:30:46.863Z,4292.00
2019-06-10T06:31:46.791Z,4360.00
2019-06-10T06:32:46.718Z,4652.00
2019-06-10T06:33:46.648Z,4472.00
2019-06-10T06:34:46.577Z,4604.00
2019-06-10T06:35:46.825Z,4752.00
2019-06-10T06:36:46.441Z,4964.00
2019-06-10T06:37:46.362Z,5144.00
2019-06-10T06:38:46.291Z,5224.00
2019-06-10T06:39:46.220Z,5472.00
2019-06-10T06:40:46.149Z,5728.00
2019-06-10T06:41:46.077Z,5708.00
2019-06-10T06:42:46.007Z,5588.00
2019-06-10T06:43:45.941Z,5732.00
2019-06-10T06:44:45.865Z,5776.00
2019-06-10T06:45:45.798Z,5844.00
2019-06-10T06:46:45.722Z,6196.00
2019-06-10T06:47:45.653Z,6228.00
2019-06-10T06:48:45.581Z,6068.00
2019-06-10T06:49:45.508Z,6024.00
2019-06-10T06:51:00.306Z,5996.00
2019-06-10T06:51:54.798Z,6400.00
2019-06-10T06:53:15.599Z,6844.00
2019-06-10T06:53:52.140Z,6916.00
2019-06-10T06:54:45.153Z,7024.00
2019-06-10T06:55:45.085Z,6896.00
2019-06-10T06:56:45.011Z,6864.00
2019-06-10T06:57:44.942Z,7076.00
2019-06-10T06:58:44.870Z,7124.00
2019-06-10T06:59:44.800Z,6948.00
2019-06-10T07:01:00.666Z,6972.00
2019-06-10T07:01:44.716Z,6708.00
2019-06-10T07:02:44.587Z,6952.00
2019-06-10T07:03:45.261Z,6728.00
2019-06-10T07:04:44.444Z,6412.00
2019-06-10T07:05:44.374Z,6244.00
2019-06-10T07:06:44.304Z,6484.00
2019-06-10T07:07:44.235Z,6148.00
2019-06-10T07:08:57.756Z,5716.00
2019-06-10T07:09:44.092Z,5668.00
2019-06-10T07:10:44.020Z,5464.00
2019-06-10T07:11:45.160Z,5000.00
2019-06-10T07:12:44.108Z,4372.00
2019-06-10T07:13:45.832Z,3692.00
2019-06-10T07:14:44.978Z,3188.00
2019-06-10T07:15:46.862Z,3072.00
2019-06-10T07:16:46.189Z,3192.00
2019-06-10T07:17:45.701Z,3592.00
2019-06-10T07:18:49.932Z,3716.00
2019-06-10T07:19:45.741Z,3872.00
2019-06-10T07:20:45.652Z,4248.00
2019-06-10T07:22:02.294Z,4736.00
2019-06-10T07:22:46.589Z,5156.00
2019-06-10T07:23:46.645Z,5896.00
2019-06-10T07:24:47.335Z,6236.00
2019-06-10T07:25:47.137Z,6212.00
2019-06-10T07:26:50.579Z,6064.00
2019-06-10T07:27:45.185Z,6004.00
2019-06-10T07:28:47.035Z,6056.00
2019-06-10T07:29:46.911Z,5908.00
2019-06-10T07:30:50.996Z,5888.00
2019-06-10T07:31:45.979Z,6016.00
2019-06-10T07:32:47.112Z,6348.00
2019-06-10T07:33:46.781Z,6680.00
2019-06-10T07:34:46.783Z,7192.00
2019-06-10T07:35:45.041Z,7800.00
2019-06-10T07:36:44.019Z,8040.00
2019-06-10T07:37:44.450Z,8160.00
2019-06-10T07:38:47.974Z,8568.00
2019-06-10T07:39:45.158Z,8552.00
2019-06-10T07:40:45.210Z,8284.00
2019-06-10T07:41:45.170Z,8032.00
2019-06-10T07:42:45.011Z,7844.00
2019-06-10T07:43:47.557Z,7904.00
2019-06-10T07:44:44.005Z,8204.00
2019-06-10T07:45:45.869Z,8488.00
2019-06-10T07:46:43.764Z,8624.00
2019-06-10T07:47:43.778Z,8328.00
2019-06-10T07:48:46.273Z,7948.00
2019-06-10T07:49:43.877Z,7496.00
2019-06-10T07:50:44.211Z,7424.00
2019-06-10T07:51:43.812Z,7296.00
2019-06-10T07:52:45.645Z,6460.00
2019-06-10T07:53:44.615Z,5636.00
2019-06-10T07:54:43.726Z,5000.00
2019-06-10T07:55:42.094Z,4464.00
2019-06-10T07:56:47.549Z,4236.00
2019-06-10T07:57:43.970Z,4320.00
2019-06-10T07:58:44.510Z,4688.00
2019-06-10T07:59:42.923Z,5284.00
2019-06-10T08:00:45.675Z,6064.00
2019-06-10T08:01:45.949Z,6716.00
2019-06-10T08:02:42.805Z,7184.00
2019-06-10T08:03:40.278Z,7336.00
2019-06-10T08:04:42.924Z,7056.00
2019-06-10T08:05:40.811Z,6652.00
2019-06-10T08:06:42.849Z,6288.00
2019-06-10T08:07:41.498Z,6060.00
2019-06-10T08:08:42.295Z,5836.00
2019-06-10T08:09:41.673Z,5912.00
2019-06-10T08:10:42.763Z,6204.00
2019-06-10T08:11:39.737Z,6248.00
2019-06-10T08:12:39.642Z,6492.00
2019-06-10T08:13:39.571Z,7100.00
2019-06-10T08:14:39.594Z,7520.00
2019-06-10T08:15:39.730Z,7972.00
2019-06-10T08:16:39.883Z,8556.00
2019-06-10T08:17:40.425Z,9336.00
2019-06-10T08:19:03.422Z,9456.00
2019-06-10T08:19:43.085Z,8744.00
2019-06-10T08:20:39.200Z,7864.00
2019-06-10T08:21:40.623Z,7424.00
2019-06-10T08:22:44.303Z,6728.00
2019-06-10T08:23:40.195Z,6236.00
2019-06-10T08:24:39.387Z,6164.00
2019-06-10T08:25:38.729Z,5984.00
2019-06-10T08:26:39.396Z,5996.00
2019-06-10T08:27:38.610Z,6212.00
2019-06-10T08:28:39.635Z,6816.00
2019-06-10T08:29:38.686Z,7404.00
2019-06-10T08:30:39.738Z,7536.00
2019-06-10T08:31:38.825Z,7536.00
2019-06-10T08:32:38.240Z,7540.00
2019-06-10T08:33:39.016Z,7548.00
2019-06-10T08:34:38.110Z,7440.00
2019-06-10T08:35:47.198Z,7012.00
2019-06-10T08:36:39.496Z,6660.00
2019-06-10T08:37:38.122Z,6328.00
2019-06-10T08:38:38.299Z,6000.00
2019-06-10T08:39:38.254Z,5676.00
2019-06-10T08:40:38.310Z,5224.00
2019-06-10T08:41:38.455Z,4752.00
2019-06-10T08:42:38.837Z,4360.00
2019-06-10T08:43:38.535Z,4172.00
2019-06-10T08:44:38.725Z,4084.00
2019-06-10T08:45:37.332Z,4068.00
2019-06-10T08:46:37.256Z,3988.00
2019-06-10T08:47:37.187Z,3680.00
2019-06-10T08:48:37.115Z,3440.00
2019-06-10T08:49:37.124Z,3388.00
2019-06-10T08:50:37.650Z,3584.00
2019-06-10T08:51:37.152Z,3648.00
2019-06-10T08:52:51.638Z,3336.00
2019-06-10T08:53:37.380Z,3436.00
2019-06-10T08:54:38.599Z,3740.00
2019-06-10T08:55:37.418Z,4100.00
2019-06-10T08:56:38.366Z,4268.00
2019-06-10T08:57:38.427Z,4256.00
2019-06-10T08:58:38.462Z,4352.00
2019-06-10T08:59:38.362Z,4392.00
2019-06-10T09:00:37.380Z,4312.00
2019-06-10T09:01:36.203Z,3996.00
2019-06-10T09:02:36.132Z,3880.00
2019-06-10T09:03:36.062Z,3652.00
2019-06-10T09:04:36.018Z,3252.00
2019-06-10T09:05:35.921Z,3172.00
2019-06-10T09:06:35.852Z,3572.00
2019-06-10T09:07:35.782Z,4220.00
2019-06-10T09:08:35.710Z,4624.00
2019-06-10T09:09:35.641Z,5024.00
2019-06-10T09:10:35.570Z,5960.00
2019-06-10T09:11:35.499Z,7408.00
2019-06-10T09:12:36.715Z,8852.00
2019-06-10T09:13:35.359Z,9880.00
2019-06-10T09:14:35.288Z,11720.00
2019-06-10T09:15:35.219Z,12544.00
2019-06-10T09:16:35.147Z,11840.00
2019-06-10T09:17:35.080Z,10608.00
2019-06-10T09:18:35.007Z,10368.00
2019-06-10T09:19:34.939Z,9920.00
2019-06-10T09:20:34.870Z,9380.00
2019-06-10T09:21:34.798Z,9392.00
2019-06-10T09:26:45.092Z,10152.00
2019-06-10T09:27:46.485Z,9008.00
2019-06-10T09:28:47.182Z,9372.00
2019-06-10T09:29:47.835Z,10364.00
2019-06-10T09:30:47.621Z,10364.00
2019-06-10T09:31:46.777Z,10124.00
2019-06-10T09:32:48.509Z,9880.00
2019-06-10T09:33:49.940Z,10088.00
2019-06-10T09:34:48.778Z,9452.00
2019-06-10T09:35:46.152Z,8300.00
2019-06-10T09:36:46.628Z,7680.00
2019-06-10T09:37:48.439Z,7380.00
2019-06-10T09:38:48.318Z,7184.00
2019-06-10T09:39:49.835Z,7400.00
2019-06-10T09:40:47.503Z,7992.00
2019-06-10T09:41:50.246Z,8168.00
2019-06-10T09:42:48.102Z,8236.00
2019-06-10T09:43:46.716Z,8320.00
2019-06-10T09:44:45.892Z,8588.00
2019-06-10T09:45:45.941Z,8548.00
2019-06-10T09:46:46.007Z,7936.00
2019-06-10T09:47:45.618Z,7464.00
2019-06-10T09:48:47.900Z,7300.00
2019-06-10T09:49:45.353Z,7384.00
2019-06-10T09:50:48.736Z,8480.00
2019-06-10T09:51:45.865Z,9656.00
2019-06-10T09:52:47.539Z,10168.00
2019-06-10T09:53:50.269Z,10160.00
2019-06-10T09:54:45.757Z,10312.00
2019-06-10T09:55:44.512Z,10244.00
2019-06-10T09:58:00.068Z,9420.00
2019-06-10T09:58:58.960Z,10708.00
2019-06-10T09:59:58.891Z,11680.00
2019-06-10T10:01:03.224Z,12496.00
2019-06-10T10:02:02.720Z,15180.00
2019-06-10T10:02:58.681Z,15212.00
2019-06-10T10:04:00.525Z,13804.00
2019-06-10T10:04:58.797Z,11992.00
2019-06-10T10:06:09.794Z,11280.00
2019-06-10T10:06:58.401Z,10912.00
2019-06-10T10:07:58.332Z,10800.00
2019-06-10T10:08:58.641Z,11236.00
2019-06-10T10:09:58.194Z,12120.00
2019-06-10T10:10:59.146Z,12572.00
2019-06-10T10:11:58.055Z,12284.00
2019-06-10T10:12:57.984Z,11784.00
2019-06-10T10:13:57.922Z,11256.00
2019-06-10T10:14:57.847Z,10712.00
2019-06-10T10:15:57.775Z,10584.00
2019-06-10T10:22:18.759Z,11320.00
2019-06-10T10:23:18.690Z,11496.00
2019-06-10T10:24:18.207Z,12232.00
2019-06-10T10:27:09.621Z,10392.00
2019-06-10T10:31:26.154Z,7800.00
2019-06-10T10:32:26.084Z,9200.00
2019-06-10T10:33:29.928Z,9288.00
2019-06-10T10:34:25.942Z,8048.00
2019-06-10T10:35:25.873Z,7544.00
2019-06-10T10:40:12.303Z,9276.00
2019-06-10T10:42:16.415Z,12792.00
2019-06-10T10:43:25.441Z,14124.00
2019-06-10T10:44:16.274Z,14072.00
2019-06-10T10:45:16.202Z,13568.00
2019-06-10T10:46:16.201Z,13052.00
2019-06-10T10:47:16.064Z,12488.00
2019-06-10T10:48:15.993Z,10156.00
2019-06-10T10:49:15.924Z,10444.00
2019-06-10T10:50:15.853Z,10404.00
2019-06-10T10:51:15.785Z,10280.00
2019-06-10T10:52:15.716Z,8444.00
2019-06-10T10:53:15.643Z,8240.00
2019-06-10T10:54:27.895Z,8236.00
2019-06-10T10:55:15.505Z,8860.00
2019-06-10T10:56:15.444Z,10796.00
2019-06-10T10:57:15.366Z,13280.00
2019-06-10T10:58:15.296Z,15136.00
2019-06-10T10:59:15.227Z,14088.00
2019-06-10T11:00:15.158Z,14312.00
2019-06-10T11:01:16.363Z,16076.00
2019-06-10T11:02:15.034Z,18496.00
2019-06-10T11:03:14.950Z,18560.00
2019-06-10T11:04:14.881Z,19744.00
2019-06-10T11:05:14.815Z,20768.00
2019-06-10T11:06:14.745Z,20224.00
2019-06-10T11:07:14.675Z,19872.00
2019-06-10T11:09:02.102Z,19168.00
2019-06-10T11:10:03.887Z,15052.00
2019-06-10T11:11:05.066Z,12504.00
2019-06-10T11:12:02.894Z,12680.00
2019-06-10T11:13:02.377Z,14648.00
2019-06-10T11:14:03.495Z,24992.00
2019-06-10T11:15:04.927Z,70656.00
2019-06-10T11:16:03.508Z,103648.00
2019-06-10T11:17:02.879Z,96832.00
2019-06-10T11:19:04.062Z,23488.00
2019-06-10T11:20:04.001Z,18880.00
2019-06-10T11:21:05.147Z,22016.00
2019-06-10T11:22:03.895Z,30912.00
2019-06-10T11:23:06.615Z,17984.00
2019-06-10T11:24:04.823Z,27840.00
2019-06-10T11:25:03.657Z,11456.00
2019-06-10T11:26:03.606Z,9256.00
2019-06-10T11:27:03.524Z,8848.00
2019-06-10T11:28:04.227Z,8048.00
2019-06-10T11:29:03.385Z,7304.00
2019-06-10T11:30:03.319Z,6216.00
2019-06-10T11:31:03.965Z,5112.00
2019-06-10T11:32:03.252Z,4440.00
2019-06-10T11:33:03.461Z,4032.00
2019-06-10T11:34:03.286Z,3936.00
2019-06-10T11:35:03.029Z,3996.00
2019-06-10T11:36:03.047Z,4172.00
2019-06-10T11:37:02.843Z,4252.00
2019-06-10T11:38:52.932Z,4676.00
2019-06-10T11:39:50.273Z,5444.00
2019-06-10T11:40:52.274Z,6412.00
2019-06-10T11:41:52.479Z,8108.00
2019-06-10T11:42:50.496Z,10568.00
2019-06-10T11:43:52.938Z,12768.00
2019-06-10T11:44:51.243Z,13912.00
2019-06-10T11:45:55.098Z,17184.00
2019-06-10T11:46:51.843Z,13740.00
2019-06-10T11:47:50.899Z,11984.00
2019-06-10T11:48:49.609Z,12668.00
2019-06-10T11:49:52.293Z,14160.00
2019-06-10T11:50:49.442Z,15924.00
2019-06-10T11:51:49.372Z,17440.00
2019-06-10T11:52:49.694Z,16832.00
2019-06-10T11:54:53.730Z,16352.00
2019-06-10T11:55:42.408Z,33216.00
2019-06-10T11:56:42.172Z,29632.00
2019-06-10T11:57:42.445Z,22976.00
2019-06-10T11:58:42.544Z,23776.00
2019-06-10T11:59:43.451Z,46400.00
2019-06-10T12:00:44.004Z,55072.00
2019-06-10T12:03:36.604Z,51744.00
2019-06-10T12:04:33.638Z,123680.00
2019-06-10T12:05:33.571Z,128064.00
2019-06-10T12:06:34.124Z,57952.00
2019-06-10T12:07:33.408Z,67456.00
2019-06-10T12:08:33.343Z,93376.00
2019-06-10T12:09:33.559Z,95808.00
2019-06-10T12:10:33.251Z,123872.00
2019-06-10T12:11:34.376Z,106336.00
2019-06-10T12:12:33.930Z,96992.00
2019-06-10T12:13:34.476Z,118464.00
2019-06-10T12:14:33.785Z,125216.00
2019-06-10T12:16:12.656Z,27264.00
2019-06-10T12:17:15.693Z,44352.00
2019-06-10T12:17:43.165Z,78240.00
2019-06-10T12:18:33.229Z,48832.00
2019-06-10T12:19:34.109Z,42048.00
2019-06-10T12:20:33.376Z,94144.00
2019-06-10T12:21:33.188Z,72416.00
2019-06-10T12:22:33.058Z,37696.00
2019-06-10T12:23:33.723Z,20960.00
2019-06-10T12:24:33.145Z,12476.00
2019-06-10T12:25:38.778Z,11504.00
2019-06-10T12:26:33.362Z,22848.00
2019-06-10T12:27:32.830Z,24672.00
2019-06-10T12:28:32.674Z,31328.00
2019-06-10T12:29:31.992Z,47808.00
2019-06-10T12:30:34.419Z,31712.00
2019-06-10T12:31:34.528Z,34656.00
2019-06-10T12:32:33.139Z,41120.00
2019-06-10T12:33:33.647Z,43136.00
2019-06-10T12:34:33.275Z,59904.00
2019-06-10T12:35:33.310Z,112864.00
2019-06-10T12:36:31.543Z,129824.00
2019-06-10T12:37:33.645Z,68032.00
2019-06-10T12:38:33.442Z,108128.00
2019-06-10T12:39:31.351Z,114144.00
2019-06-10T12:40:31.286Z,109632.00
2019-06-10T12:41:33.180Z,112832.00
2019-06-10T12:42:32.845Z,107072.00
2019-06-10T12:43:32.592Z,73792.00
2019-06-10T12:44:33.541Z,32000.00
2019-06-10T12:45:32.611Z,41760.00
2019-06-10T12:46:32.702Z,28672.00
2019-06-10T12:47:33.167Z,48160.00
2019-06-10T12:48:33.204Z,99648.00
2019-06-10T12:49:32.069Z,53440.00
2019-06-10T12:50:30.663Z,44160.00